This is the latest recevied weather packets stored in our database for station/object KC4MCQ-10. If no packets are shown the sender has not sent any weather packets the latest 10 day(s).
| Time | Temp. | Humidity | Pressure | Rain* | Wind** | Luminosity | Snow |
|---|---|---|---|---|---|---|---|
| 1787775401 | 28.33° C | 83% | 1015.4 hPa | 1.27 mm | 0.45 m/s, 93° | - | - |
| 1787774781 | 27.78° C | 85% | 1015.4 hPa | 1.27 mm | 0.45 m/s, 77° | - | - |
| 1787774178 | 27.22° C | 86% | 1015.5 hPa | 1.27 mm | 0.45 m/s, 84° | - | - |
| 1787773574 | 26.67° C | 86% | 1015.9 hPa | 1.27 mm | 0.45 m/s, 75° | - | - |
| 1787772973 | 26.67° C | 87% | 1015.8 hPa | 1.27 mm | 0.45 m/s, 77° | - | - |
| 1787772373 | 26.11° C | 87% | 1015.5 hPa | 1.27 mm | 0.45 m/s, 98° | - | - |
| 1787771772 | 26.11° C | 88% | 1015.7 hPa | 1.27 mm | 0.89 m/s, 98° | - | - |
| 1787771166 | 25.56° C | 88% | 1016 hPa | 1.27 mm | 0 m/s | - | - |
| 1787770555 | 25.56° C | 88% | 1016.2 hPa | 1.27 mm | 0.89 m/s, 115° | - | - |
| 1787769953 | 25° C | 88% | 1016.3 hPa | 1.27 mm | 0.45 m/s, 106° | - | - |
| 1787769346 | 25.56° C | 89% | 1016.5 hPa | 1.27 mm | 0.89 m/s, 148° | - | - |
| 1787768744 | 25.56° C | 88% | 1016.6 hPa | 1.27 mm | 2.24 m/s, 161° | - | - |
| 1787768127 | 25.56° C | 89% | 1016.7 hPa | 1.27 mm | 0.45 m/s, 142° | - | - |
| 1787765714 | 26.67° C | 86% | 1017 hPa | 1.02 mm | 2.24 m/s, 122° | - | - |
| 1787765113 | 28.33° C | 82% | 1017.2 hPa | 0.51 mm | 0 m/s | - | - |
| 1787764502 | 30° C | 80% | 1017.3 hPa | 0 mm | 0 m/s | - | - |
| 1787763902 | 30.56° C | 78% | 1017.5 hPa | 0 mm | 0 m/s | - | - |
| 1787763301 | 30.56° C | 78% | 1017.7 hPa | 0 mm | 0 m/s | - | - |
| 1787762700 | 30° C | 78% | 1017.9 hPa | 0 mm | 0 m/s | - | - |
| 1787762068 | 30.56° C | 77% | 1018.3 hPa | 0 mm | 0 m/s | - | - |
| 1787761466 | 30° C | 79% | 1018.3 hPa | 0 mm | 0 m/s | - | - |
| 1787760866 | 30° C | 80% | 1018.3 hPa | 0 mm | 0 m/s | - | - |
| 1787760261 | 29.44° C | 80% | 1018.3 hPa | 0 mm | 0 m/s | - | - |
| 1787759659 | 30° C | 79% | 1018.3 hPa | 0 mm | 0 m/s | - | - |
| 1787759058 | 29.44° C | 80% | 1018.4 hPa | 0 mm | 0 m/s | - | - |
* Rain latest 24 hours (hover to see other rain measurements)
** Current wind speed in m/s (hover to see current wind gust speed)